Time;durP1;ratioP1;P1;durP2;ratioP2;P2;SDS_P1;SDS_P2;PMS_P1;PMS_P2;Temp;Humidity;BMP_temperature;BMP_pressure;BME280_temperature;BME280_humidity;BME280_pressure;Samples;Min_cycle;Max_cycle;Signal;HPM_P1;HPM_P2
2022/06/01 00:02:19;;;;;;;4.95;2.88;;;20.20;56.10;;;;;;5012132;28;20061;-75
2022/06/01 00:04:45;;;;;;;5.57;2.65;;;20.20;56.50;;;;;;5011804;28;20041;-75
2022/06/01 00:07:11;;;;;;;5.07;2.97;;;20.20;56.20;;;;;;5011542;28;20040;-76
2022/06/01 00:09:37;;;;;;;6.55;3.22;;;20.20;56.20;;;;;;4993762;28;20073;-75
2022/06/01 00:12:03;;;;;;;6.63;3.13;;;20.20;56.20;;;;;;5010478;28;20033;-76
2022/06/01 00:14:29;;;;;;;5.00;3.13;;;20.20;56.20;;;;;;5010522;28;20041;-76
2022/06/01 00:16:56;;;;;;;4.47;2.88;;;20.20;56.20;;;;;;5010682;28;20025;-76
2022/06/01 00:19:22;;;;;;;5.35;2.78;;;20.20;56.20;;;;;;5011588;28;20037;-76
2022/06/01 00:24:33;;;;;;;5.85;2.72;;;20.30;56.20;;;;;;5011786;28;20026;-76
2022/06/01 00:26:59;;;;;;;4.18;2.72;;;20.20;56.10;;;;;;5010239;28;20026;-76
2022/06/01 00:29:25;;;;;;;6.20;3.00;;;20.30;56.20;;;;;;5010070;28;20045;-76
2022/06/01 00:31:50;;;;;;;5.00;3.05;;;20.30;56.20;;;;;;5011567;28;20149;-76
2022/06/01 00:34:17;;;;;;;6.00;3.17;;;20.20;56.10;;;;;;5011181;28;20072;-76
2022/06/01 00:36:43;;;;;;;4.68;2.78;;;20.20;56.10;;;;;;4996250;28;20247;-75
2022/06/01 00:39:08;;;;;;;5.25;3.03;;;20.20;56.20;;;;;;5015312;28;20090;-76
2022/06/01 00:41:35;;;;;;;6.00;2.83;;;20.20;56.20;;;;;;5015525;28;20033;-75
2022/06/01 00:44:00;;;;;;;5.70;2.83;;;20.20;56.20;;;;;;5015186;28;20394;-76
2022/06/01 00:46:26;;;;;;;3.88;2.50;;;20.20;56.20;;;;;;5015361;28;20022;-76
2022/06/01 00:48:56;;;;;;;6.00;3.03;;;20.20;56.20;;;;;;5013739;28;20414;-76
2022/06/01 00:51:26;;;;;;;4.80;2.80;;;20.20;56.20;;;;;;4997861;28;20040;-76
2022/06/01 00:53:54;;;;;;;5.40;2.97;;;20.20;56.30;;;;;;5015382;28;20022;-76
2022/06/01 00:56:25;;;;;;;5.30;3.10;;;20.30;56.30;;;;;;5014101;28;20054;-76
2022/06/01 00:58:55;;;;;;;4.13;2.58;;;20.20;56.30;;;;;;5014844;28;20050;-76
2022/06/01 01:01:21;;;;;;;6.25;2.50;;;20.20;56.30;;;;;;5014129;28;20133;-76
2022/06/01 01:03:50;;;;;;;6.90;2.95;;;20.20;56.30;;;;;;5015030;28;20034;-75
2022/06/01 01:06:18;;;;;;;5.30;2.70;;;20.20;56.40;;;;;;5013775;28;20493;-76
2022/06/01 01:08:46;;;;;;;5.88;2.67;;;20.20;56.30;;;;;;5014362;28;20475;-76
2022/06/01 01:11:13;;;;;;;5.15;2.92;;;20.20;56.30;;;;;;5013563;28;20050;-76
2022/06/01 01:13:44;;;;;;;4.88;2.88;;;20.20;56.30;;;;;;5013637;28;20045;-76
2022/06/01 01:16:10;;;;;;;4.90;2.75;;;20.20;56.90;;;;;;5015183;28;20037;-76
2022/06/01 01:18:39;;;;;;;3.53;2.60;;;20.20;56.30;;;;;;5014985;28;20455;-76
2022/06/01 01:21:10;;;;;;;4.50;2.85;;;20.20;56.30;;;;;;5014453;28;20109;-76
2022/06/01 01:23:58;;;;;;;5.35;2.92;;;20.20;56.30;;;;;;5015401;28;20038;-75
2022/06/01 01:26:26;;;;;;;4.43;2.60;;;20.20;56.30;;;;;;5014826;28;20057;-76
2022/06/01 01:28:53;;;;;;;4.30;2.75;;;20.20;56.30;;;;;;5015483;28;20058;-75
2022/06/01 01:31:21;;;;;;;5.65;3.00;;;20.20;56.20;;;;;;5018146;28;20022;-76
2022/06/01 01:33:50;;;;;;;4.50;2.90;;;20.20;56.20;;;;;;5021016;28;20091;-76
2022/06/01 01:36:19;;;;;;;5.03;2.67;;;20.20;56.20;;;;;;5020311;28;20064;-76
2022/06/01 01:39:03;;;;;;;5.23;2.60;;;20.20;56.20;;;;;;5019780;28;20026;-76
2022/06/01 01:41:33;;;;;;;4.60;2.67;;;20.20;56.20;;;;;;5019313;28;20048;-76
2022/06/01 01:44:06;;;;;;;;;;;20.20;56.30;;;;;;5014914;28;20030;-75
2022/06/01 01:46:32;;;;;;;5.80;2.72;;;20.20;56.20;;;;;;5014100;28;19956;-76
2022/06/01 01:48:58;;;;;;;4.28;2.60;;;20.20;56.20;;;;;;5013056;28;20034;-76
2022/06/01 01:51:25;;;;;;;4.05;2.72;;;20.20;56.30;;;;;;5013106;28;20486;-76
2022/06/01 01:53:53;;;;;;;6.50;3.05;;;20.20;56.20;;;;;;5014139;28;20033;-75
2022/06/01 01:56:32;;;;;;;4.47;2.67;;;20.20;56.30;;;;;;5013138;28;20022;-75
2022/06/01 01:59:10;;;;;;;4.32;2.88;;;20.20;56.30;;;;;;4996392;28;20040;-75
2022/06/01 02:01:53;;;;;;;4.82;2.67;;;20.20;56.30;;;;;;5013003;28;20066;-76
2022/06/01 02:07:19;;;;;;;6.07;3.00;;;20.20;56.30;;;;;;5012522;28;20415;-76
2022/06/01 02:12:42;;;;;;;4.10;2.67;;;20.20;56.30;;;;;;5012598;28;20037;-76
2022/06/01 02:15:12;;;;;;;3.72;2.45;;;20.20;56.30;;;;;;5014006;28;20080;-76
2022/06/01 02:17:53;;;;;;;3.80;2.50;;;20.20;56.30;;;;;;5013393;28;20034;-76
2022/06/01 02:20:30;;;;;;;3.97;2.40;;;20.20;56.30;;;;;;5013822;28;20077;-76
2022/06/01 02:22:56;;;;;;;4.70;2.72;;;20.20;56.30;;;;;;5012482;28;20320;-76
2022/06/01 02:25:23;;;;;;;3.90;2.60;;;20.20;56.30;;;;;;5013628;28;20038;-76
2022/06/01 02:27:52;;;;;;;3.63;2.40;;;20.20;56.40;;;;;;5011761;28;20038;-76
2022/06/01 02:30:31;;;;;;;4.13;2.45;;;20.20;56.30;;;;;;5013490;28;20041;-75
2022/06/01 02:32:58;;;;;;;6.43;2.38;;;20.20;56.30;;;;;;5013426;28;20029;-76
2022/06/01 02:35:24;;;;;;;4.47;2.42;;;20.20;56.40;;;;;;5012336;28;20026;-76
2022/06/01 02:37:55;;;;;;;3.92;2.40;;;20.20;56.30;;;;;;5012896;28;20041;-76
2022/06/01 02:40:25;;;;;;;4.75;2.35;;;20.20;56.90;;;;;;5013583;28;20145;-76
2022/06/01 02:42:53;;;;;;;3.78;2.42;;;20.20;56.30;;;;;;5013723;28;20025;-76
2022/06/01 02:45:24;;;;;;;6.15;2.67;;;20.20;56.30;;;;;;5013201;28;20037;-75
2022/06/01 02:47:53;;;;;;;3.75;2.65;;;20.20;56.30;;;;;;5011538;28;20546;-76
2022/06/01 02:50:26;;;;;;;3.72;2.33;;;20.20;56.30;;;;;;5013123;28;20319;-76
2022/06/01 02:52:52;;;;;;;3.22;2.40;;;20.20;56.30;;;;;;5012821;28;20033;-75
2022/06/01 02:55:21;;;;;;;4.47;2.60;;;20.20;56.30;;;;;;5011748;28;20486;-76
2022/06/01 02:57:48;;;;;;;3.30;2.17;;;20.20;56.20;;;;;;5012521;28;20045;-76
2022/06/01 03:00:17;;;;;;;4.63;2.83;;;20.20;56.30;;;;;;5012594;28;20038;-75
2022/06/01 03:02:48;;;;;;;4.45;2.42;;;20.20;56.30;;;;;;5011523;28;20113;-76
2022/06/01 03:05:15;;;;;;;4.65;2.70;;;20.20;56.30;;;;;;5013000;28;20084;-75
2022/06/01 03:07:41;;;;;;;3.88;2.40;;;20.20;56.30;;;;;;5011016;28;20033;-76
2022/06/01 03:10:09;;;;;;;3.53;2.47;;;20.20;56.30;;;;;;5011503;28;20105;-75
2022/06/01 03:12:38;;;;;;;3.33;2.38;;;20.20;56.30;;;;;;5012397;28;20038;-76
2022/06/01 03:15:07;;;;;;;3.85;2.47;;;20.20;56.30;;;;;;5012665;28;20022;-76
2022/06/01 03:17:33;;;;;;;4.03;2.35;;;20.20;56.30;;;;;;5010843;28;20029;-76
2022/06/01 03:20:00;;;;;;;4.57;2.42;;;20.10;56.30;;;;;;4995152;28;20026;-76
2022/06/01 03:22:26;;;;;;;3.58;2.40;;;20.20;56.30;;;;;;4994948;28;20030;-76
2022/06/01 03:24:52;;;;;;;3.15;2.45;;;20.10;56.20;;;;;;5011302;28;20034;-75
2022/06/01 03:27:18;;;;;;;3.80;2.60;;;20.10;56.30;;;;;;5012202;28;20037;-75
2022/06/01 03:29:45;;;;;;;3.63;2.28;;;20.20;56.30;;;;;;5011983;28;20072;-76
2022/06/01 03:32:11;;;;;;;3.63;2.42;;;20.20;56.30;;;;;;5012175;28;20371;-76
2022/06/01 03:34:38;;;;;;;4.55;2.67;;;20.20;56.30;;;;;;5010997;28;20033;-76
2022/06/01 03:37:04;;;;;;;4.88;2.20;;;20.20;56.30;;;;;;5010701;28;20105;-76
2022/06/01 03:39:30;;;;;;;4.03;2.35;;;20.20;56.30;;;;;;5010668;28;20037;-76
2022/06/01 03:41:56;;;;;;;4.65;2.58;;;20.10;56.30;;;;;;5012449;28;20486;-76
2022/06/01 03:47:09;;;;;;;4.30;2.55;;;20.10;56.30;;;;;;5012225;28;20528;-76
2022/06/01 03:49:35;;;;;;;3.45;2.20;;;20.10;56.40;;;;;;4994070;28;20030;-76
2022/06/01 03:52:02;;;;;;;3.97;2.30;;;20.10;56.80;;;;;;5012182;28;20428;-76
2022/06/01 03:54:28;;;;;;;3.67;2.03;;;20.20;56.30;;;;;;5012050;28;20490;-76
2022/06/01 03:56:54;;;;;;;3.53;2.40;;;20.20;56.30;;;;;;5010950;28;20026;-76
2022/06/01 03:59:20;;;;;;;3.72;2.20;;;20.20;56.30;;;;;;5011407;28;20069;-76
2022/06/01 04:01:45;;;;;;;3.40;2.30;;;20.20;56.30;;;;;;5012108;28;20655;-76
2022/06/01 04:04:11;;;;;;;4.47;2.70;;;20.20;56.30;;;;;;5011532;28;20037;-76
2022/06/01 04:06:37;;;;;;;4.20;2.50;;;20.20;56.30;;;;;;5011791;28;20368;-76
2022/06/01 04:09:02;;;;;;;3.03;2.15;;;20.20;56.30;;;;;;4993784;28;20037;-76
2022/06/01 04:11:28;;;;;;;4.07;2.30;;;20.20;56.30;;;;;;5011268;28;20033;-76
2022/06/01 04:13:54;;;;;;;3.05;2.15;;;20.20;56.90;;;;;;5010316;28;20017;-76
2022/06/01 04:16:20;;;;;;;4.43;2.67;;;20.20;56.20;;;;;;5010751;28;20033;-76
2022/06/01 04:18:46;;;;;;;3.05;2.10;;;20.20;56.30;;;;;;5010807;28;20026;-76
2022/06/01 04:21:13;;;;;;;3.75;2.58;;;20.20;56.40;;;;;;5010614;28;20033;-75
2022/06/01 04:23:39;;;;;;;4.05;2.30;;;20.20;56.30;;;;;;5011314;28;20401;-76
2022/06/01 04:26:05;;;;;;;4.53;2.30;;;20.10;56.20;;;;;;5010289;28;20033;-76
2022/06/01 04:28:30;;;;;;;4.53;2.35;;;20.10;56.30;;;;;;5009452;28;20132;-76
2022/06/01 04:30:56;;;;;;;3.70;2.20;;;20.20;56.30;;;;;;5011534;28;20542;-76
2022/06/01 04:33:22;;;;;;;3.35;2.20;;;20.20;56.30;;;;;;5011002;28;20026;-76
2022/06/01 04:35:48;;;;;;;2.35;1.80;;;20.10;56.30;;;;;;5011515;28;20038;-76
2022/06/01 04:38:13;;;;;;;3.78;2.30;;;20.10;56.40;;;;;;5009806;28;20092;-76
2022/06/01 04:40:45;;;;;;;3.35;2.25;;;20.20;56.30;;;;;;5011793;28;20076;-76
2022/06/01 04:43:15;;;;;;;3.53;2.45;;;20.20;56.30;;;;;;5011266;28;20044;-76
2022/06/01 04:45:41;;;;;;;3.13;2.13;;;20.10;56.40;;;;;;5011241;28;20556;-76
2022/06/01 04:48:07;;;;;;;3.92;2.47;;;20.10;56.30;;;;;;5010705;28;20034;-76
2022/06/01 04:50:33;;;;;;;2.55;2.05;;;20.10;56.30;;;;;;5011376;28;20032;-76
2022/06/01 04:53:00;;;;;;;3.80;2.30;;;20.10;56.30;;;;;;5011012;28;20030;-76
2022/06/01 04:55:26;;;;;;;2.95;2.17;;;20.10;56.30;;;;;;4994097;28;20042;-76
2022/06/01 04:57:52;;;;;;;4.20;2.20;;;20.10;56.30;;;;;;5010719;28;20148;-75
2022/06/01 05:00:18;;;;;;;3.50;2.30;;;20.10;56.40;;;;;;5010201;28;20171;-76
2022/06/01 05:02:44;;;;;;;3.00;2.20;;;20.20;56.40;;;;;;5010007;28;20427;-76
2022/06/01 05:05:10;;;;;;;3.28;2.10;;;20.20;56.40;;;;;;5011446;28;20153;-76
2022/06/01 05:07:35;;;;;;;5.03;2.30;;;20.10;56.20;;;;;;5010588;28;20115;-76
2022/06/01 05:10:01;;;;;;;3.80;2.28;;;20.20;56.30;;;;;;5011277;28;20105;-76
2022/06/01 05:12:27;;;;;;;2.97;2.08;;;20.20;56.20;;;;;;5009960;28;20042;-76
2022/06/01 05:14:53;;;;;;;3.53;2.03;;;20.20;56.30;;;;;;5010759;28;20109;-77
2022/06/01 05:17:19;;;;;;;3.92;2.38;;;20.20;56.30;;;;;;5009739;28;20026;-77
2022/06/01 05:19:45;;;;;;;2.95;2.22;;;20.20;56.20;;;;;;5009742;28;20092;-77
2022/06/01 05:22:10;;;;;;;3.80;2.25;;;20.20;56.30;;;;;;5011348;28;20033;-77
2022/06/01 05:24:36;;;;;;;2.90;2.20;;;20.20;56.40;;;;;;5014646;28;20026;-76
2022/06/01 05:27:02;;;;;;;4.05;2.55;;;20.20;56.30;;;;;;5014942;28;20030;-77
2022/06/01 05:29:28;;;;;;;4.20;2.42;;;20.20;56.20;;;;;;5014539;28;20032;-77
2022/06/01 05:31:54;;;;;;;3.75;2.40;;;20.20;56.30;;;;;;5014702;28;20106;-77
2022/06/01 05:34:21;;;;;;;3.60;2.30;;;20.20;56.30;;;;;;5014400;28;20549;-77
2022/06/01 05:36:47;;;;;;;3.45;2.42;;;20.20;56.40;;;;;;4997104;28;20026;-77
2022/06/01 05:39:13;;;;;;;3.13;2.30;;;20.20;56.40;;;;;;5012734;28;20056;-77
2022/06/01 05:41:39;;;;;;;3.65;2.35;;;20.10;56.30;;;;;;5013246;28;20533;-77
2022/06/01 05:44:06;;;;;;;4.32;2.70;;;20.20;56.30;;;;;;5014294;28;20030;-77
2022/06/01 05:46:35;;;;;;;4.93;2.70;;;20.20;56.30;;;;;;5013310;28;20129;-77
2022/06/01 05:49:02;;;;;;;3.20;2.10;;;20.10;56.30;;;;;;5013127;28;20057;-77
2022/06/01 05:51:28;;;;;;;4.22;2.40;;;20.10;56.30;;;;;;5014725;28;20096;-76
2022/06/01 05:53:54;;;;;;;4.03;2.20;;;20.20;56.30;;;;;;4996750;28;20038;-77
2022/06/01 05:56:20;;;;;;;3.20;2.47;;;20.20;56.40;;;;;;5014418;28;20021;-77
2022/06/01 05:58:47;;;;;;;2.97;2.30;;;20.20;56.30;;;;;;5013344;28;20022;-77
2022/06/01 06:01:14;;;;;;;4.18;2.40;;;20.20;56.30;;;;;;5013975;28;20385;-77
2022/06/01 06:03:40;;;;;;;4.38;2.58;;;20.20;56.30;;;;;;5012685;28;20079;-77
2022/06/01 06:06:15;;;;;;;3.20;2.22;;;20.20;56.30;;;;;;5014401;28;20113;-77
2022/06/01 06:09:03;;;;;;;3.83;2.03;;;20.20;56.30;;;;;;5014214;28;20029;-76
2022/06/01 06:11:36;;;;;;;3.22;2.30;;;20.20;56.30;;;;;;5012886;28;20110;-77
2022/06/01 06:14:03;;;;;;;3.45;2.03;;;20.20;56.20;;;;;;5014093;28;20037;-77
2022/06/01 06:16:31;;;;;;;3.08;2.30;;;20.20;56.20;;;;;;5012378;28;20033;-77
2022/06/01 06:18:57;;;;;;;3.65;2.28;;;20.20;56.20;;;;;;5013005;28;20029;-77
2022/06/01 06:21:29;;;;;;;3.35;2.17;;;20.20;56.10;;;;;;5012279;28;20498;-77
2022/06/01 06:24:07;;;;;;;3.42;2.60;;;20.20;56.70;;;;;;4995871;28;20402;-77
2022/06/01 06:26:33;;;;;;;3.03;2.38;;;20.20;56.10;;;;;;5012063;28;20037;-77
2022/06/01 06:29:05;;;;;;;3.33;2.20;;;20.20;56.10;;;;;;5011737;28;20038;-77
2022/06/01 06:31:31;;;;;;;3.58;2.33;;;20.20;56.20;;;;;;5012299;28;20030;-77
2022/06/01 06:33:57;;;;;;;2.60;2.10;;;20.20;56.10;;;;;;5011476;28;20121;-78
2022/06/01 06:36:23;;;;;;;4.65;2.67;;;20.20;56.20;;;;;;5012183;28;20041;-77
2022/06/01 06:38:49;;;;;;;4.55;2.67;;;20.20;56.10;;;;;;4995446;28;20026;-77
2022/06/01 06:41:14;;;;;;;3.55;2.35;;;20.20;56.70;;;;;;5013391;28;20494;-77
2022/06/01 06:43:41;;;;;;;3.92;2.20;;;20.20;56.10;;;;;;4995815;28;20487;-77
2022/06/01 06:46:19;;;;;;;3.20;2.20;;;20.20;56.20;;;;;;5013139;28;20067;-77
2022/06/01 06:48:48;;;;;;;3.30;2.42;;;20.20;56.20;;;;;;5012336;28;20040;-77
2022/06/01 06:51:15;;;;;;;3.67;2.50;;;20.20;56.20;;;;;;5013291;28;20029;-77
2022/06/01 06:53:42;;;;;;;3.45;2.22;;;20.20;56.10;;;;;;5013000;28;20482;-77
2022/06/01 06:56:08;;;;;;;4.38;2.40;;;20.20;56.20;;;;;;5013041;28;20513;-77
2022/06/01 06:58:34;;;;;;;4.22;2.35;;;20.20;56.10;;;;;;5011012;28;20137;-77
2022/06/01 07:01:00;;;;;;;3.33;2.20;;;20.20;56.20;;;;;;5011613;28;20026;-77
2022/06/01 07:03:25;;;;;;;5.22;2.50;;;20.20;56.20;;;;;;5012662;28;20068;-77
2022/06/01 07:06:11;;;;;;;3.50;2.22;;;20.20;56.10;;;;;;5012818;28;20058;-77
2022/06/01 07:08:43;;;;;;;4.50;2.40;;;20.20;56.10;;;;;;5012114;28;20061;-77
2022/06/01 07:11:10;;;;;;;3.70;2.50;;;20.20;56.20;;;;;;5011483;28;20026;-77
2022/06/01 07:13:36;;;;;;;3.33;2.20;;;20.20;56.20;;;;;;5011681;28;20100;-77
2022/06/01 07:16:14;;;;;;;3.25;2.20;;;20.30;56.20;;;;;;5012510;28;20030;-77
2022/06/01 07:18:43;;;;;;;3.83;2.55;;;20.20;56.10;;;;;;5011321;28;20029;-77
2022/06/01 07:21:09;;;;;;;2.80;1.95;;;20.30;56.00;;;;;;5011373;28;20514;-77
2022/06/01 07:23:37;;;;;;;3.20;2.20;;;20.30;56.10;;;;;;5012388;28;20030;-77
2022/06/01 07:26:05;;;;;;;3.05;2.25;;;20.30;56.00;;;;;;5012515;28;20518;-77
2022/06/01 07:28:31;;;;;;;3.83;2.05;;;20.30;56.10;;;;;;5011778;28;20062;-77
2022/06/01 07:30:57;;;;;;;3.55;2.40;;;20.20;56.10;;;;;;5012656;28;20479;-76
2022/06/01 07:33:28;;;;;;;3.15;2.33;;;20.30;56.10;;;;;;5012119;28;20036;-77
2022/06/01 07:35:55;;;;;;;3.03;2.30;;;20.30;56.10;;;;;;5011060;28;20116;-77
2022/06/01 07:43:54;;;;;;;12.18;3.60;;;20.30;57.00;;;;;;5012234;28;20541;-80
2022/06/01 07:46:20;;;;;;;14.52;8.25;;;20.30;57.30;;;;;;5011412;28;20026;-80
2022/06/01 07:48:46;;;;;;;13.82;6.78;;;20.30;56.50;;;;;;5012161;28;20144;-80
2022/06/01 07:51:13;;;;;;;17.95;11.48;;;20.30;57.20;;;;;;5010643;28;20522;-80
2022/06/01 07:53:39;;;;;;;22.48;12.95;;;20.20;56.90;;;;;;5011854;28;20540;-77
2022/06/01 07:56:05;;;;;;;21.60;12.45;;;20.20;56.30;;;;;;5010972;28;20036;-77
2022/06/01 07:58:31;;;;;;;20.67;9.85;;;20.20;55.90;;;;;;5010171;28;20529;-77
2022/06/01 08:00:57;;;;;;;16.08;10.68;;;20.20;56.00;;;;;;5010766;28;20034;-77
2022/06/01 08:03:22;;;;;;;15.50;10.00;;;20.20;56.20;;;;;;4994338;28;20065;-77
2022/06/01 08:05:48;;;;;;;15.55;8.73;;;20.20;56.20;;;;;;5011731;28;20057;-78
2022/06/01 08:08:14;;;;;;;17.02;9.60;;;20.20;56.30;;;;;;4993859;28;20042;-77
2022/06/01 08:10:40;;;;;;;14.05;9.23;;;20.20;56.40;;;;;;5011871;28;20072;-77
2022/06/01 08:13:13;;;;;;;16.73;9.57;;;20.20;56.40;;;;;;5010452;28;20021;-77
2022/06/01 08:15:41;;;;;;;15.90;9.32;;;20.20;56.40;;;;;;5010711;28;20490;-77
2022/06/01 08:18:07;;;;;;;15.18;9.38;;;20.20;56.50;;;;;;5011245;28;20470;-77
2022/06/01 08:20:34;;;;;;;15.30;9.25;;;20.20;56.50;;;;;;5011775;28;20113;-77
2022/06/01 08:23:00;;;;;;;16.42;9.63;;;20.20;56.40;;;;;;5011451;28;20032;-77
2022/06/01 08:25:27;;;;;;;15.20;9.38;;;20.20;56.50;;;;;;5010293;28;20386;-77
2022/06/01 08:27:53;;;;;;;16.65;9.02;;;20.20;56.50;;;;;;5009883;28;20038;-77
2022/06/01 08:30:21;;;;;;;15.57;9.65;;;20.20;56.40;;;;;;5011317;28;20383;-77
2022/06/01 08:32:48;;;;;;;14.25;9.82;;;20.20;56.50;;;;;;5010358;28;20105;-77
2022/06/01 08:35:19;;;;;;;17.70;9.43;;;20.20;56.50;;;;;;5010216;28;20112;-77
2022/06/01 08:37:46;;;;;;;15.90;9.30;;;20.20;56.40;;;;;;5011988;28;20033;-76
2022/06/01 08:40:13;;;;;;;13.80;9.55;;;20.20;56.50;;;;;;5010496;28;20022;-77
2022/06/01 08:43:07;;;;;;;15.73;8.82;;;20.20;56.40;;;;;;5010717;28;20122;-77
2022/06/01 08:45:34;;;;;;;15.38;9.77;;;20.20;56.40;;;;;;5005377;28;20048;-77
2022/06/01 08:48:00;;;;;;;14.15;9.27;;;20.30;56.50;;;;;;5009875;28;20101;-77
2022/06/01 08:50:31;;;;;;;17.25;9.40;;;20.30;56.40;;;;;;5012757;28;20121;-77
2022/06/01 08:52:59;;;;;;;14.10;9.02;;;20.30;56.40;;;;;;5012588;28;20041;-77
2022/06/01 08:55:29;;;;;;;16.42;9.23;;;20.30;56.30;;;;;;5012191;28;20049;-77
2022/06/01 08:57:59;;;;;;;13.65;8.48;;;20.30;56.20;;;;;;4997374;28;20049;-76
2022/06/01 09:00:27;;;;;;;;;;;20.30;56.20;;;;;;5017037;28;20030;-77
2022/06/01 09:03:26;;;;;;;13.15;9.00;;;20.30;56.20;;;;;;5016281;28;20056;-77
2022/06/01 09:06:02;;;;;;;13.18;8.25;;;20.30;56.10;;;;;;5022527;28;20108;-76
2022/06/01 09:08:52;;;;;;;13.43;8.57;;;20.30;56.20;;;;;;5004602;28;20067;-77
2022/06/01 09:11:33;;;;;;;14.32;8.00;;;20.30;56.70;;;;;;5020498;28;20057;-77
2022/06/01 09:14:16;;;;;;;13.80;8.15;;;20.30;56.20;;;;;;5017123;28;20026;-77
2022/06/01 09:16:48;;;;;;;14.25;8.73;;;20.30;56.10;;;;;;5014999;28;20034;-77
2022/06/01 09:22:37;;;;;;;14.77;8.32;;;20.30;56.10;;;;;;5014765;28;20030;-77
2022/06/01 09:25:07;;;;;;;13.90;8.63;;;20.30;56.00;;;;;;5014767;28;20025;-77
2022/06/01 09:27:34;;;;;;;14.18;8.20;;;20.30;56.00;;;;;;5013995;28;20331;-77
2022/06/01 09:30:15;;;;;;;14.20;7.57;;;20.30;56.10;;;;;;5014702;28;20034;-77
2022/06/01 09:32:41;;;;;;;14.23;8.35;;;20.30;56.10;;;;;;5014624;28;20026;-77
2022/06/01 09:35:10;;;;;;;13.05;7.75;;;20.30;56.10;;;;;;5014893;28;20029;-77
2022/06/01 09:37:41;;;;;;;16.02;8.18;;;20.30;56.10;;;;;;5012789;28;20549;-77
2022/06/01 09:40:31;;;;;;;12.93;7.95;;;20.30;56.10;;;;;;5014295;28;20030;-77
2022/06/01 09:43:00;;;;;;;12.68;8.07;;;20.30;56.10;;;;;;5014434;28;20088;-77
2022/06/01 09:45:26;;;;;;;11.40;7.50;;;20.30;56.30;;;;;;5013208;28;20516;-77
2022/06/01 09:47:53;;;;;;;14.23;8.55;;;20.30;56.10;;;;;;5013743;28;20072;-77
2022/06/01 09:50:28;;;;;;;11.60;7.78;;;20.30;56.10;;;;;;5013020;28;20037;-76
2022/06/01 09:53:19;;;;;;;13.02;8.35;;;20.30;56.10;;;;;;5012985;28;20026;-76
2022/06/01 09:56:00;;;;;;;12.73;8.18;;;20.30;56.00;;;;;;5013086;28;20025;-76
2022/06/01 10:06:57;;;;;;;13.73;7.97;;;20.30;56.00;;;;;;5013872;28;20188;-77
2022/06/01 10:09:32;;;;;;;13.10;8.50;;;20.40;56.00;;;;;;5012483;28;20053;-77
2022/06/01 10:11:58;;;;;;;11.63;7.45;;;20.40;56.00;;;;;;5013976;28;20021;-77
2022/06/01 10:14:32;;;;;;;12.15;7.55;;;20.30;55.90;;;;;;5012468;28;20041;-77
2022/06/01 10:17:27;;;;;;;10.98;7.05;;;20.40;55.90;;;;;;5013680;28;20068;-77
2022/06/01 10:20:00;;;;;;;11.55;7.20;;;20.40;55.90;;;;;;4996019;28;20030;-77
2022/06/01 10:22:38;;;;;;;12.57;7.28;;;20.30;55.90;;;;;;5013600;28;20036;-77
2022/06/01 10:25:24;;;;;;;13.05;7.57;;;20.30;55.90;;;;;;5013498;28;20026;-78
2022/06/01 10:28:00;;;;;;;11.88;7.00;;;20.40;56.00;;;;;;5011881;28;20041;-78
2022/06/01 10:30:31;;;;;;;11.18;7.07;;;20.40;56.00;;;;;;5012347;28;20451;-78
2022/06/01 10:33:05;;;;;;;10.13;7.15;;;20.40;56.00;;;;;;5013377;28;20022;-78
2022/06/01 10:35:43;;;;;;;13.75;7.32;;;20.40;55.90;;;;;;5013465;28;20063;-78
2022/06/01 10:38:31;;;;;;;10.80;6.85;;;20.40;55.90;;;;;;5013038;28;20037;-77
2022/06/01 10:41:02;;;;;;;12.25;6.97;;;20.40;55.90;;;;;;5013477;28;20034;-77
2022/06/01 10:44:05;;;;;;;13.02;7.72;;;20.40;56.00;;;;;;5013107;28;20042;-77
2022/06/01 10:46:52;;;;;;;11.02;7.30;;;20.40;55.80;;;;;;5013228;28;20034;-77
2022/06/01 10:49:56;;;;;;;11.30;7.47;;;20.40;55.90;;;;;;5011897;28;20061;-78
2022/06/01 10:52:35;;;;;;;11.45;7.10;;;20.40;55.90;;;;;;5012887;28;20467;-77
2022/06/01 10:55:12;;;;;;;10.25;6.35;;;20.40;55.90;;;;;;5012933;28;20022;-77
2022/06/01 10:57:42;;;;;;;14.30;7.50;;;20.40;56.00;;;;;;5012622;28;20045;-77
2022/06/01 11:00:11;;;;;;;10.88;7.35;;;20.40;55.90;;;;;;5012875;28;20037;-77
2022/06/01 11:03:06;;;;;;;11.32;7.05;;;20.40;56.00;;;;;;5013087;28;20037;-77
2022/06/01 11:06:02;;;;;;;10.55;6.20;;;20.40;55.90;;;;;;5012910;28;20041;-78
2022/06/01 11:08:51;;;;;;;11.40;6.93;;;20.40;55.80;;;;;;5010978;28;20064;-77
2022/06/01 11:11:23;;;;;;;11.05;6.85;;;20.40;55.90;;;;;;5012727;28;20030;-77
2022/06/01 11:14:14;;;;;;;11.77;6.32;;;20.40;55.90;;;;;;4980208;28;20030;-77
2022/06/01 11:16:55;;;;;;;12.60;7.80;;;20.40;56.00;;;;;;5013372;28;20228;-76
2022/06/01 11:20:02;;;;;;;13.60;6.85;;;20.40;56.10;;;;;;5012787;28;20041;-76
2022/06/01 11:22:51;;;;;;;12.35;6.78;;;20.40;56.20;;;;;;5012862;28;20026;-73
2022/06/01 11:25:32;;;;;;;12.57;6.65;;;20.50;55.70;;;;;;4986769;28;20038;-72
2022/06/01 11:28:31;;;;;;;11.40;4.93;;;20.50;55.20;;;;;;5009205;28;20145;-72
2022/06/01 11:31:15;;;;;;;12.43;5.67;;;20.50;53.50;;;;;;5008668;28;20512;-72
2022/06/01 11:33:59;;;;;;;15.57;5.40;;;20.50;53.20;;;;;;5009568;28;20760;-74
2022/06/01 11:36:44;;;;;;;14.55;5.50;;;20.50;52.50;;;;;;5008291;28;20038;-74
2022/06/01 11:39:13;;;;;;;11.55;5.82;;;20.60;54.30;;;;;;5008763;28;20490;-74
2022/06/01 11:41:44;;;;;;;9.15;4.85;;;20.60;52.90;;;;;;5009377;28;20085;-79
2022/06/01 11:44:20;;;;;;;11.27;5.75;;;20.60;53.80;;;;;;4995189;28;20034;-78
2022/06/01 11:47:03;;;;;;;23.30;6.05;;;20.60;54.80;;;;;;4994672;28;20030;-80
2022/06/01 11:49:42;;;;;;;27.92;5.80;;;20.60;54.80;;;;;;4994204;28;20027;-79
2022/06/01 11:52:22;;;;;;;14.38;4.70;;;20.60;55.60;;;;;;4989039;28;20117;-74
2022/06/01 11:55:15;;;;;;;15.25;4.55;;;20.60;54.10;;;;;;4990958;28;20034;-74
2022/06/01 11:57:44;;;;;;;18.60;4.80;;;20.60;53.70;;;;;;4974540;28;20045;-74
2022/06/01 12:00:30;;;;;;;12.23;3.88;;;20.60;53.70;;;;;;4991652;28;20057;-74
2022/06/01 12:03:15;;;;;;;12.32;4.10;;;20.60;52.30;;;;;;4992463;28;20554;-74
2022/06/01 12:05:57;;;;;;;12.05;4.50;;;20.60;54.30;;;;;;4990620;28;20034;-75
2022/06/01 12:08:30;;;;;;;17.27;3.78;;;20.60;53.30;;;;;;4991587;28;20073;-74
2022/06/01 12:10:59;;;;;;;10.48;3.65;;;20.60;53.50;;;;;;4992291;28;20105;-73
2022/06/01 12:13:28;;;;;;;11.40;3.35;;;20.60;53.00;;;;;;4992438;28;20050;-73
2022/06/01 12:16:08;;;;;;;17.75;6.40;;;20.60;49.70;;;;;;4991047;28;20034;-74
2022/06/01 12:18:35;;;;;;;;;;;20.50;51.50;;;;;;4991129;28;20455;-73
2022/06/01 12:21:22;;;;;;;32.05;20.67;;;20.50;51.50;;;;;;4992139;28;20037;-73
2022/06/01 12:30:03;;;;;;;34.47;21.52;;;20.50;51.70;;;;;;4989992;28;20082;-77
2022/06/01 12:32:31;;;;;;;39.15;24.35;;;20.50;50.90;;;;;;4989514;28;20467;-77
2022/06/01 12:35:16;;;;;;;31.60;19.48;;;20.50;51.60;;;;;;4990742;28;20065;-77
2022/06/01 12:37:51;;;;;;;29.02;17.50;;;20.50;51.70;;;;;;4990831;28;20538;-77
2022/06/01 12:40:21;;;;;;;60.40;23.65;;;20.60;52.20;;;;;;4990302;28;20069;-77
2022/06/01 12:42:53;;;;;;;;;;;20.70;55.50;;;;;;4992554;28;20030;-78
2022/06/01 12:45:21;;;;;;;350.52;93.95;;;20.70;59.50;;;;;;4991168;28;20337;-77
2022/06/01 12:48:00;;;;;;;474.75;135.40;;;20.80;60.90;;;;;;4991327;28;20131;-76
2022/06/01 12:50:29;;;;;;;228.77;76.32;;;20.80;62.10;;;;;;4975292;28;20117;-78
2022/06/01 12:53:11;;;;;;;217.98;88.43;;;20.80;58.30;;;;;;4989096;28;20037;-77
2022/06/01 12:55:37;;;;;;;179.35;64.90;;;20.70;58.50;;;;;;4988808;28;20038;-75
2022/06/01 12:58:18;;;;;;;165.60;59.10;;;20.80;57.90;;;;;;4992184;28;20022;-75
2022/06/01 13:00:51;;;;;;;157.50;51.58;;;20.70;57.90;;;;;;4994283;28;20034;-77
2022/06/01 13:03:20;;;;;;;165.77;51.28;;;20.70;57.90;;;;;;4991766;28;20034;-76
2022/06/01 13:05:49;;;;;;;145.27;50.00;;;20.60;57.70;;;;;;4974312;28;20085;-77
2022/06/01 13:08:23;;;;;;;146.52;50.40;;;20.60;57.80;;;;;;4991333;28;20023;-78
2022/06/01 13:10:49;;;;;;;137.80;49.50;;;20.60;57.80;;;;;;4994175;28;20105;-78
2022/06/01 13:13:20;;;;;;;137.73;49.38;;;20.60;57.70;;;;;;5004305;28;20117;-76
2022/06/01 13:16:01;;;;;;;158.02;48.53;;;20.60;57.80;;;;;;4975481;28;20044;-77
2022/06/01 13:18:35;;;;;;;133.07;46.78;;;20.60;58.00;;;;;;4975749;28;20512;-77
2022/06/01 13:21:08;;;;;;;144.48;47.85;;;20.60;57.80;;;;;;5008453;28;20065;-77
2022/06/01 13:23:51;;;;;;;132.18;46.38;;;20.60;57.90;;;;;;5007661;28;20061;-77
2022/06/01 13:26:37;;;;;;;129.07;44.22;;;20.60;58.00;;;;;;4988622;28;20101;-77
2022/06/01 13:29:28;;;;;;;125.53;45.55;;;20.60;57.90;;;;;;4989979;28;20030;-78
2022/06/01 13:32:00;;;;;;;129.18;44.72;;;20.60;57.90;;;;;;4974011;28;20053;-76
2022/06/01 13:34:45;;;;;;;121.72;44.45;;;20.60;58.00;;;;;;4973389;28;20077;-75
2022/06/01 13:37:25;;;;;;;115.72;44.35;;;20.60;57.70;;;;;;4989060;28;20042;-78
2022/06/01 13:40:02;;;;;;;120.00;44.70;;;20.60;57.60;;;;;;5006328;28;20089;-76